createdAt,value
2022-11-13T00:02:21.857Z,10.60
2022-11-13T00:05:07.350Z,11.40
2022-11-13T00:07:52.816Z,10.83
2022-11-13T00:10:38.659Z,12.00
2022-11-13T00:13:29.044Z,11.40
2022-11-13T00:16:18.935Z,10.60
2022-11-13T00:19:04.369Z,10.00
2022-11-13T00:21:49.797Z,11.90
2022-11-13T00:24:35.068Z,11.20
2022-11-13T00:27:20.397Z,12.73
2022-11-13T00:30:06.260Z,11.73
2022-11-13T00:32:51.898Z,13.70
2022-11-13T00:35:37.232Z,12.13
2022-11-13T00:38:22.566Z,11.27
2022-11-13T00:41:08.285Z,11.23
2022-11-13T00:43:53.246Z,16.13
2022-11-13T00:46:38.923Z,11.77
2022-11-13T00:49:24.042Z,11.47
2022-11-13T00:52:09.372Z,12.73
2022-11-13T00:54:54.838Z,11.27
2022-11-13T00:57:40.264Z,10.70
2022-11-13T01:00:25.623Z,12.97
2022-11-13T01:03:12.158Z,10.67
2022-11-13T01:05:57.499Z,12.50
2022-11-13T01:08:43.075Z,11.10
2022-11-13T01:11:30.395Z,10.90
2022-11-13T01:14:15.908Z,10.50
2022-11-13T01:17:01.282Z,11.43
2022-11-13T01:19:46.498Z,10.00
2022-11-13T01:22:32.020Z,10.93
2022-11-13T01:25:18.174Z,10.47
2022-11-13T01:28:03.877Z,11.87
2022-11-13T01:30:49.259Z,11.37
2022-11-13T01:33:34.587Z,10.70
2022-11-13T01:36:22.980Z,12.53
2022-11-13T01:39:11.032Z,14.03
2022-11-13T01:41:56.530Z,11.33
2022-11-13T01:44:54.354Z,12.17
2022-11-13T01:47:39.474Z,11.03
2022-11-13T01:50:25.155Z,11.20
2022-11-13T01:53:10.615Z,10.70
2022-11-13T01:55:56.295Z,10.73
2022-11-13T01:58:43.946Z,11.20
2022-11-13T02:01:29.213Z,11.10
2022-11-13T02:04:14.702Z,14.67
2022-11-13T02:07:07.823Z,13.93
2022-11-13T02:09:55.704Z,11.93
2022-11-13T02:12:48.483Z,12.47
2022-11-13T02:15:34.573Z,10.57
2022-11-13T02:18:22.355Z,11.50
2022-11-13T02:21:38.390Z,11.57
2022-11-13T02:24:28.926Z,10.77
2022-11-13T02:27:27.787Z,11.57
2022-11-13T02:30:19.818Z,11.93
2022-11-13T02:33:29.770Z,10.40
2022-11-13T02:36:16.490Z,11.83
2022-11-13T02:39:06.628Z,11.87
2022-11-13T02:41:52.098Z,11.90
2022-11-13T02:44:37.444Z,14.10
2022-11-13T02:47:22.784Z,11.03
2022-11-13T02:50:10.162Z,11.50
2022-11-13T02:52:55.478Z,11.73
2022-11-13T02:55:40.727Z,11.53
2022-11-13T02:58:26.505Z,11.50
2022-11-13T03:01:12.233Z,12.30
2022-11-13T03:03:58.428Z,14.03
2022-11-13T03:06:44.077Z,12.63
2022-11-13T03:09:29.384Z,11.00
2022-11-13T03:12:14.682Z,12.07
2022-11-13T03:15:00.125Z,10.80
2022-11-13T03:17:45.409Z,11.57
2022-11-13T03:20:31.087Z,12.13
2022-11-13T03:23:16.227Z,10.97
2022-11-13T03:26:07.361Z,11.70
2022-11-13T03:28:52.570Z,10.87
2022-11-13T03:31:37.946Z,11.03
2022-11-13T03:34:23.358Z,11.90
2022-11-13T03:37:08.934Z,11.33
2022-11-13T03:39:54.201Z,12.43
2022-11-13T03:42:39.624Z,12.07
2022-11-13T03:45:24.841Z,11.73
2022-11-13T03:48:10.292Z,11.40
2022-11-13T03:50:56.051Z,12.77
2022-11-13T03:53:41.291Z,12.93
2022-11-13T03:56:26.664Z,13.17
2022-11-13T03:59:11.982Z,14.03
2022-11-13T04:01:57.530Z,13.13
2022-11-13T04:04:42.979Z,11.77
2022-11-13T04:07:28.358Z,12.37
2022-11-13T04:10:13.979Z,12.53
2022-11-13T04:12:59.038Z,12.77
2022-11-13T04:15:44.551Z,11.97
2022-11-13T04:18:30.137Z,13.37
2022-11-13T04:21:15.625Z,14.10
2022-11-13T04:24:00.955Z,13.13
2022-11-13T04:26:46.281Z,14.87
2022-11-13T04:29:31.575Z,12.20
2022-11-13T04:32:17.016Z,12.10
2022-11-13T04:35:02.593Z,12.83
2022-11-13T04:37:47.758Z,12.53
2022-11-13T04:40:33.497Z,13.13
2022-11-13T04:43:18.759Z,14.17
2022-11-13T04:46:04.059Z,12.23
2022-11-13T04:48:49.464Z,12.87
2022-11-13T04:51:34.882Z,13.43
2022-11-13T04:54:24.292Z,12.67
2022-11-13T04:57:12.544Z,12.40
2022-11-13T04:59:58.044Z,15.53
2022-11-13T05:02:43.257Z,14.57
2022-11-13T05:05:29.672Z,13.13
2022-11-13T05:08:15.086Z,15.50
2022-11-13T05:11:01.624Z,13.23
2022-11-13T05:13:47.067Z,14.57
2022-11-13T05:16:34.729Z,13.00
2022-11-13T05:19:19.951Z,15.13
2022-11-13T05:22:05.894Z,14.03
2022-11-13T05:24:50.888Z,12.67
2022-11-13T05:27:36.337Z,13.13
2022-11-13T05:30:21.660Z,12.77
2022-11-13T05:33:07.022Z,13.23
2022-11-13T05:35:52.339Z,12.20
2022-11-13T05:38:38.225Z,12.53
2022-11-13T05:41:23.992Z,12.70
2022-11-13T05:44:09.224Z,15.43
2022-11-13T05:46:54.668Z,13.20
2022-11-13T05:49:40.111Z,13.47
2022-11-13T05:52:25.385Z,12.93
2022-11-13T05:55:10.831Z,12.63
2022-11-13T05:57:58.227Z,13.20
2022-11-13T06:00:43.484Z,13.20
2022-11-13T06:03:29.002Z,13.37
2022-11-13T06:06:17.597Z,12.83
2022-11-13T06:09:05.088Z,13.60
2022-11-13T06:11:50.172Z,13.20
2022-11-13T06:14:35.402Z,13.53
2022-11-13T06:17:20.816Z,12.60
2022-11-13T06:20:06.569Z,13.10
2022-11-13T06:22:51.696Z,13.47
2022-11-13T06:25:37.063Z,14.13
2022-11-13T06:28:22.325Z,13.90
2022-11-13T06:31:13.470Z,13.23
2022-11-13T06:34:00.036Z,13.87
2022-11-13T06:36:45.365Z,13.77
2022-11-13T06:39:30.819Z,13.40
2022-11-13T06:42:16.170Z,12.57
2022-11-13T06:45:01.367Z,12.93
2022-11-13T06:47:46.822Z,12.60
2022-11-13T06:50:32.130Z,13.53
2022-11-13T06:53:17.702Z,13.90
2022-11-13T06:56:05.904Z,13.53
2022-11-13T06:58:50.966Z,13.03
2022-11-13T07:01:36.382Z,13.43
2022-11-13T07:04:21.691Z,13.43
2022-11-13T07:07:07.153Z,13.97
2022-11-13T07:09:52.520Z,13.10
2022-11-13T07:12:37.838Z,13.83
2022-11-13T07:15:23.281Z,13.63
2022-11-13T07:18:08.630Z,13.20
2022-11-13T07:20:54.033Z,12.67
2022-11-13T07:23:45.710Z,12.77
2022-11-13T07:26:30.776Z,14.00
2022-11-13T07:29:16.113Z,13.37
2022-11-13T07:32:01.594Z,12.67
2022-11-13T07:34:46.718Z,12.90
2022-11-13T07:37:32.061Z,13.73
2022-11-13T07:40:17.597Z,13.77
2022-11-13T07:43:03.505Z,13.63
2022-11-13T07:45:54.350Z,15.33
2022-11-13T07:48:39.400Z,13.83
2022-11-13T07:51:24.839Z,14.77
2022-11-13T07:54:10.168Z,14.27
2022-11-13T07:56:55.523Z,14.33
2022-11-13T07:59:40.964Z,15.27
2022-11-13T08:02:26.936Z,15.37
2022-11-13T08:05:12.335Z,15.73
2022-11-13T08:07:57.770Z,14.43
2022-11-13T08:10:43.024Z,15.20
2022-11-13T08:13:28.419Z,17.13
2022-11-13T08:16:13.702Z,16.67
2022-11-13T08:18:59.040Z,15.03
2022-11-13T08:21:44.561Z,15.53
2022-11-13T08:24:29.811Z,15.93
2022-11-13T08:27:15.179Z,16.67
2022-11-13T08:30:00.453Z,17.33
2022-11-13T08:32:47.516Z,17.20
2022-11-13T08:35:32.743Z,17.40
2022-11-13T08:38:18.010Z,18.70
2022-11-13T08:41:09.030Z,19.80
2022-11-13T08:43:55.223Z,20.07
2022-11-13T08:46:40.651Z,19.73
2022-11-13T08:49:25.870Z,18.60
2022-11-13T08:52:11.223Z,20.93
2022-11-13T08:54:56.499Z,19.43
2022-11-13T08:57:42.000Z,18.17
2022-11-13T09:00:29.048Z,17.97
2022-11-13T09:03:14.587Z,20.83
2022-11-13T09:05:59.920Z,19.07
2022-11-13T09:08:45.207Z,21.37
2022-11-13T09:11:30.671Z,19.40
2022-11-13T09:14:16.312Z,21.00
2022-11-13T09:17:01.647Z,17.73
2022-11-13T09:19:47.344Z,19.03
2022-11-13T09:22:32.608Z,18.37
2022-11-13T09:25:17.693Z,18.50
2022-11-13T09:28:04.098Z,19.47
2022-11-13T09:30:50.189Z,17.97
2022-11-13T09:33:35.837Z,17.93
2022-11-13T09:36:21.112Z,18.10
2022-11-13T09:39:06.443Z,18.67
2022-11-13T09:41:58.810Z,20.03
2022-11-13T09:44:47.676Z,20.23
2022-11-13T09:47:44.091Z,17.30
2022-11-13T09:50:31.469Z,19.00
2022-11-13T09:53:16.857Z,18.27
2022-11-13T09:56:18.243Z,19.80
2022-11-13T09:59:22.367Z,18.10
2022-11-13T10:02:27.503Z,18.60
2022-11-13T10:05:22.911Z,18.47
2022-11-13T10:08:19.069Z,17.63
2022-11-13T10:11:37.631Z,17.90
2022-11-13T10:14:39.999Z,17.63
2022-11-13T10:17:39.752Z,18.57
2022-11-13T10:20:42.025Z,18.63
2022-11-13T10:23:34.779Z,17.80
2022-11-13T10:26:22.821Z,17.37
2022-11-13T10:29:15.447Z,16.80
2022-11-13T10:32:13.408Z,15.90
2022-11-13T10:35:28.116Z,16.57
2022-11-13T10:38:33.727Z,16.90
2022-11-13T10:41:21.772Z,16.23
2022-11-13T10:44:30.518Z,16.73
2022-11-13T10:47:36.191Z,16.73
2022-11-13T10:50:29.512Z,17.43
2022-11-13T10:53:17.170Z,17.40
2022-11-13T10:56:02.513Z,18.03
2022-11-13T10:59:09.042Z,18.50
2022-11-13T11:01:54.271Z,18.07
2022-11-13T11:04:39.702Z,20.17
2022-11-13T11:07:25.276Z,18.97
2022-11-13T11:10:32.663Z,17.50
2022-11-13T11:13:23.313Z,17.70
2022-11-13T11:16:13.547Z,18.80
2022-11-13T11:19:04.221Z,20.10
2022-11-13T11:21:53.764Z,20.47
2022-11-13T11:24:45.243Z,19.90
2022-11-13T11:27:50.972Z,19.83
2022-11-13T11:30:47.263Z,19.93
2022-11-13T11:34:20.931Z,19.97
2022-11-13T11:37:15.542Z,18.67
2022-11-13T11:40:13.252Z,19.47
2022-11-13T11:43:23.752Z,16.97
2022-11-13T11:46:22.224Z,16.73
2022-11-13T11:49:09.996Z,15.33
2022-11-13T11:52:20.275Z,15.50
2022-11-13T11:55:31.183Z,15.97
2022-11-13T11:58:31.324Z,14.77
2022-11-13T12:01:58.283Z,14.27
2022-11-13T12:05:01.491Z,13.67
2022-11-13T12:08:32.477Z,12.97
2022-11-13T12:11:39.375Z,13.23
2022-11-13T12:14:51.324Z,12.80
2022-11-13T12:17:48.386Z,14.47
2022-11-13T12:20:43.824Z,14.13
2022-11-13T12:24:03.529Z,14.63
2022-11-13T12:27:11.302Z,16.27
2022-11-13T12:30:22.601Z,13.80
2022-11-13T12:33:33.954Z,16.03
2022-11-13T12:36:20.649Z,12.20
2022-11-13T12:39:45.901Z,11.03
2022-11-13T12:42:36.308Z,11.37
2022-11-13T12:45:39.730Z,13.03
2022-11-13T12:48:34.624Z,12.57
2022-11-13T12:51:20.959Z,12.13
2022-11-13T12:54:06.348Z,11.07
2022-11-13T12:56:51.465Z,11.37
2022-11-13T12:59:41.600Z,10.43
2022-11-13T13:02:39.886Z,11.07
2022-11-13T13:05:49.150Z,13.60
2022-11-13T13:08:56.976Z,10.23
2022-11-13T13:12:19.758Z,11.83
2022-11-13T13:15:34.835Z,13.27
2022-11-13T13:18:20.110Z,14.50
2022-11-13T13:21:10.139Z,10.73
2022-11-13T13:24:06.292Z,11.03
2022-11-13T13:26:51.215Z,13.13
2022-11-13T13:29:40.986Z,10.97
2022-11-13T13:32:31.366Z,13.33
2022-11-13T13:35:43.684Z,13.10
2022-11-13T13:38:41.511Z,10.93
2022-11-13T13:41:53.059Z,11.27
2022-11-13T13:44:55.303Z,13.50
2022-11-13T13:47:45.041Z,16.07
2022-11-13T13:50:39.104Z,12.63
2022-11-13T13:53:31.905Z,13.70
2022-11-13T13:56:18.760Z,12.93
2022-11-13T13:59:04.084Z,11.03
2022-11-13T14:01:58.565Z,11.17
2022-11-13T14:04:47.144Z,12.10
2022-11-13T14:07:33.680Z,12.60
2022-11-13T14:10:21.971Z,12.73
2022-11-13T14:13:12.759Z,17.67
2022-11-13T14:16:07.960Z,15.20
2022-11-13T14:19:03.956Z,16.53
2022-11-13T14:22:01.771Z,15.90
2022-11-13T14:24:58.020Z,16.83
2022-11-13T14:27:43.362Z,17.23
2022-11-13T14:30:30.530Z,17.03
2022-11-13T14:33:22.862Z,18.03
2022-11-13T14:36:08.408Z,19.20
2022-11-13T14:38:54.414Z,18.53
2022-11-13T14:42:16.001Z,19.93
2022-11-13T14:45:20.468Z,19.97
2022-11-13T14:48:23.973Z,19.77
2022-11-13T14:51:23.932Z,23.17
2022-11-13T14:54:33.819Z,21.37
2022-11-13T14:57:27.060Z,20.60
2022-11-13T15:00:18.711Z,19.73
2022-11-13T15:03:05.411Z,19.07
2022-11-13T15:05:50.877Z,17.60
2022-11-13T15:08:36.374Z,17.97
2022-11-13T15:11:24.531Z,16.27
2022-11-13T15:14:12.209Z,16.17
2022-11-13T15:16:59.283Z,16.17
2022-11-13T15:19:48.385Z,16.07
2022-11-13T15:22:34.668Z,15.53
2022-11-13T15:25:22.425Z,12.57
2022-11-13T15:28:08.034Z,13.60
2022-11-13T15:30:53.558Z,11.63
2022-11-13T15:33:38.572Z,11.10
2022-11-13T15:36:24.367Z,8.87
2022-11-13T15:39:14.399Z,9.20
2022-11-13T15:42:10.980Z,8.43
2022-11-13T15:44:56.288Z,9.20
2022-11-13T15:47:41.999Z,9.57
2022-11-13T15:50:27.511Z,9.30
2022-11-13T15:53:12.936Z,6.60
2022-11-13T15:56:02.824Z,7.30
2022-11-13T15:58:47.908Z,8.97
2022-11-13T16:01:33.351Z,8.27
2022-11-13T16:04:18.843Z,6.97
2022-11-13T16:07:06.537Z,7.13
2022-11-13T16:09:52.207Z,6.57
2022-11-13T16:12:37.714Z,7.23
2022-11-13T16:15:23.241Z,7.50
2022-11-13T16:18:20.452Z,6.30
2022-11-13T16:21:05.667Z,7.13
2022-11-13T16:23:50.979Z,7.03
2022-11-13T16:26:36.645Z,6.33
2022-11-13T16:29:23.908Z,6.17
2022-11-13T16:32:16.516Z,5.97
2022-11-13T16:35:01.941Z,6.70
2022-11-13T16:37:47.552Z,5.33
2022-11-13T16:40:32.885Z,5.80
2022-11-13T16:43:18.441Z,6.00
2022-11-13T16:46:12.847Z,5.70
2022-11-13T16:48:59.507Z,6.37
2022-11-13T16:51:46.646Z,6.77
2022-11-13T16:54:32.017Z,5.90
2022-11-13T16:57:17.487Z,5.67
2022-11-13T17:00:05.749Z,5.37
2022-11-13T17:02:52.708Z,5.23
2022-11-13T17:05:38.330Z,5.33
2022-11-13T17:08:23.357Z,4.97
2022-11-13T17:11:12.907Z,5.03
2022-11-13T17:14:00.196Z,4.80
2022-11-13T17:16:45.335Z,6.27
2022-11-13T17:19:30.811Z,4.93
2022-11-13T17:22:16.977Z,5.00
2022-11-13T17:25:02.314Z,5.20
2022-11-13T17:27:47.685Z,7.27
2022-11-13T17:30:32.874Z,10.27
2022-11-13T17:33:18.433Z,5.93
2022-11-13T17:36:04.595Z,6.20
2022-11-13T17:38:50.025Z,7.73
2022-11-13T17:41:37.098Z,4.93
2022-11-13T17:44:22.096Z,7.33
2022-11-13T17:47:07.293Z,6.13
2022-11-13T17:49:52.777Z,5.53
2022-11-13T17:52:38.172Z,5.23
2022-11-13T17:55:24.337Z,5.47
2022-11-13T17:58:09.556Z,4.70
2022-11-13T18:01:07.031Z,5.57
2022-11-13T18:03:56.310Z,5.20
2022-11-13T18:06:41.522Z,5.77
2022-11-13T18:09:26.823Z,5.80
2022-11-13T18:12:12.116Z,5.77
2022-11-13T18:14:57.465Z,5.50
2022-11-13T18:17:42.705Z,5.57
2022-11-13T18:20:28.829Z,5.53
2022-11-13T18:23:14.078Z,5.50
2022-11-13T18:26:07.202Z,7.07
2022-11-13T18:28:52.669Z,6.17
2022-11-13T18:31:38.182Z,10.53
2022-11-13T18:34:23.263Z,5.77
2022-11-13T18:37:08.691Z,16.73
2022-11-13T18:39:54.075Z,6.60
2022-11-13T18:42:39.456Z,6.70
2022-11-13T18:45:24.935Z,7.17
2022-11-13T18:48:10.258Z,8.17
2022-11-13T18:50:57.541Z,6.63
2022-11-13T18:53:45.417Z,6.93
2022-11-13T18:56:32.283Z,7.50
2022-11-13T18:59:17.681Z,8.20
2022-11-13T19:02:03.205Z,11.40
2022-11-13T19:04:48.510Z,8.63
2022-11-13T19:07:33.924Z,8.17
2022-11-13T19:10:19.383Z,8.33
2022-11-13T19:13:04.753Z,8.37
2022-11-13T19:15:50.734Z,8.83
2022-11-13T19:18:37.010Z,9.03
2022-11-13T19:21:24.147Z,9.03
2022-11-13T19:24:09.889Z,8.67
2022-11-13T19:26:55.191Z,9.30
2022-11-13T19:29:40.676Z,9.70
2022-11-13T19:32:25.997Z,10.20
2022-11-13T19:35:11.610Z,11.37
2022-11-13T19:37:57.930Z,11.77
2022-11-13T19:40:51.104Z,12.43
2022-11-13T19:43:38.171Z,9.70
2022-11-13T19:46:23.675Z,9.87
2022-11-13T19:49:09.182Z,10.20
2022-11-13T19:51:55.094Z,12.13
2022-11-13T19:54:41.878Z,12.57
2022-11-13T19:57:27.188Z,13.20
2022-11-13T20:00:13.219Z,12.93
2022-11-13T20:02:58.322Z,14.77
2022-11-13T20:05:43.968Z,14.27
2022-11-13T20:08:29.932Z,16.40
2022-11-13T20:11:15.913Z,16.10
2022-11-13T20:14:01.055Z,18.07
2022-11-13T20:16:46.420Z,16.43
2022-11-13T20:19:31.862Z,18.10
2022-11-13T20:22:17.243Z,17.73
2022-11-13T20:25:02.546Z,19.13
2022-11-13T20:27:48.077Z,16.27
2022-11-13T20:30:33.630Z,17.33
2022-11-13T20:33:22.551Z,18.37
2022-11-13T20:36:08.186Z,18.07
2022-11-13T20:38:56.101Z,17.53
2022-11-13T20:41:41.514Z,18.20
2022-11-13T20:44:27.095Z,17.77
2022-11-13T20:47:12.438Z,18.93
2022-11-13T20:49:57.674Z,17.47
2022-11-13T20:52:43.288Z,18.07
2022-11-13T20:55:29.446Z,19.80
2022-11-13T20:58:14.603Z,20.17
2022-11-13T21:01:07.631Z,16.83
2022-11-13T21:03:53.319Z,17.90
2022-11-13T21:06:38.839Z,19.93
2022-11-13T21:09:24.195Z,20.10
2022-11-13T21:12:09.545Z,17.97
2022-11-13T21:14:55.000Z,18.73
2022-11-13T21:17:40.448Z,19.67
2022-11-13T21:20:25.923Z,21.40
2022-11-13T21:23:11.291Z,21.13
2022-11-13T21:26:04.776Z,20.30
2022-11-13T21:28:53.217Z,18.20
2022-11-13T21:31:38.571Z,18.90
2022-11-13T21:34:24.049Z,18.53
2022-11-13T21:37:10.878Z,19.47
2022-11-13T21:39:56.146Z,18.20
2022-11-13T21:42:41.566Z,18.77
2022-11-13T21:45:26.795Z,19.77
2022-11-13T21:48:12.264Z,18.93
2022-11-13T21:50:58.487Z,19.50
2022-11-13T21:53:43.594Z,18.77
2022-11-13T21:56:30.384Z,18.93
2022-11-13T21:59:15.891Z,19.17
2022-11-13T22:02:01.284Z,20.90
2022-11-13T22:04:46.518Z,20.27
2022-11-13T22:07:31.970Z,19.87
2022-11-13T22:10:17.241Z,20.90
2022-11-13T22:13:02.471Z,20.60
2022-11-13T22:15:47.834Z,19.03
2022-11-13T22:18:33.930Z,20.53
2022-11-13T22:21:19.303Z,19.83
2022-11-13T22:24:04.893Z,22.70
2022-11-13T22:26:49.980Z,21.07
2022-11-13T22:29:35.451Z,20.83
2022-11-13T22:32:20.682Z,21.03
2022-11-13T22:35:06.831Z,20.23
2022-11-13T22:37:52.092Z,20.20
2022-11-13T22:40:37.334Z,20.90
2022-11-13T22:43:22.682Z,23.93
2022-11-13T22:46:17.327Z,22.60
2022-11-13T22:49:04.956Z,21.63
2022-11-13T22:51:50.654Z,22.10
2022-11-13T22:54:36.103Z,21.50
2022-11-13T22:57:21.563Z,22.00
2022-11-13T23:00:09.207Z,20.33
2022-11-13T23:02:54.275Z,22.37
2022-11-13T23:05:39.590Z,23.00
2022-11-13T23:08:25.085Z,23.03
2022-11-13T23:11:13.547Z,20.73
2022-11-13T23:14:02.188Z,23.60
2022-11-13T23:16:47.219Z,22.40
2022-11-13T23:19:32.710Z,22.03
2022-11-13T23:22:18.046Z,22.83
2022-11-13T23:25:03.721Z,23.10
2022-11-13T23:27:49.106Z,22.43
2022-11-13T23:30:34.491Z,21.60
2022-11-13T23:33:19.985Z,23.17
2022-11-13T23:36:06.831Z,24.80
2022-11-13T23:38:51.947Z,23.27
2022-11-13T23:41:37.248Z,24.13
2022-11-13T23:44:22.782Z,23.80
2022-11-13T23:47:07.965Z,27.90
2022-11-13T23:49:53.311Z,24.57
2022-11-13T23:52:38.752Z,25.57
2022-11-13T23:55:24.057Z,25.00
2022-11-13T23:58:12.588Z,25.27
